METAR Data
IDs: Format: Raw Decoded Include TAF

Data at: 1515 UTC 10 Aug 2022

KLPC 101456Z AUTO 00000KT 6SM BR OVC002 14/14 A3005 RMK AO2 SLP178 T01440139 53011
KLPC 101441Z AUTO 00000KT 4SM BR OVC002 14/14 A3005 RMK AO2
KLPC 101423Z AUTO 00000KT 2 1/2SM BR OVC002 14/14 A3004 RMK AO2 VIS 1 1/2V5
KLPC 101356Z AUTO 00000KT 1 1/4SM BR OVC002 14/14 A3004 RMK AO2 VIS 3/4V2 SLP171 T01390139
KLPC 101325Z AUTO 23004KT 1 3/4SM BR OVC002 14/14 A3003 RMK AO2 VIS 1V3
KLPC 101315Z AUTO 00000KT 3SM BR OVC002 14/14 A3002 RMK AO2
KLPC 101307Z AUTO 00000KT 1 3/4SM BR OVC002 14/14 A3002 RMK AO2 VIS 1 1/4V4
KLPC 101256Z AUTO 23006KT 5SM BR OVC004 14/14 A3002 RMK AO2 SLP166 T01440139
KLPC 101156Z AUTO 26006KT 9SM OVC004 15/14 A3002 RMK AO2 SLP166 T01500144 10156 20139 58002
KLPC 101056Z AUTO 09003KT 10SM OVC008 15/13 A3002 RMK AO2 CIG 007V010 SLP167 T01500133
KLPC 100956Z AUTO 00000KT 10SM OVC006 16/14 A3002 RMK AO2 SLP167 T01560139
KLPC 100856Z AUTO 10SM OVC006 16/14 A3003 RMK AO2 SLP168 T01560144 50002 $
KLPC 100756Z AUTO 30003KT 10SM BKN008 14/13 A3003 RMK AO2 SLP168 T01440133 402390139
KLPC 100751Z AUTO 29004KT 10SM BKN008 14/13 A3003 RMK AO2 402390139
KLPC 100735Z AUTO 28004KT 10SM SCT008 14/13 A3003 RMK AO2
KLPC 100656Z AUTO 28004KT 10SM CLR 15/14 A3002 RMK AO2 SLP166 T01500139
KLPC 100556Z AUTO 26005KT 10SM CLR 16/14 A3002 RMK AO2 SLP167 T01560144 10228 20156 53009
KLPC 100456Z AUTO 27006KT 10SM CLR 16/14 A3001 RMK AO2 SLP164 T01610144
KLPC 100356Z AUTO 26006KT 10SM CLR 17/14 A3000 RMK AO2 SLP160 T01670144
KLPC 100256Z AUTO 28009KT 10SM CLR 18/14 A3000 RMK AO2 SLP159 T01780139 53008
KLPC 100156Z AUTO 30012KT 10SM CLR 20/13 A2998 RMK AO2 SLP152 T02000133
KLPC 100056Z AUTO 29012KT 10SM CLR 22/13 A2997 RMK AO2 SLP150 T02170133
KLPC 092356Z AUTO 28014KT 10SM CLR 23/13 A2997 RMK AO2 SLP150 T02280133 10239 20189 56005
KLPC 092256Z AUTO 26010G17KT 10SM CLR 22/15 A2997 RMK AO2 SLP150 T02220150
KLPC 092156Z AUTO 26014G18KT 10SM CLR 22/15 A2998 RMK AO2 SLP152 T02220150
KLPC 092056Z AUTO 27014G19KT 10SM CLR 23/15 A2999 RMK AO2 SLP155 T02330150 56007
KLPC 091956Z AUTO 27013KT 10SM CLR 21/14 A2999 RMK AO2 SLP156 T02060144
KLPC 091856Z AUTO 29007KT 10SM CLR 21/14 A3000 RMK AO2 SLP158 T02110144
KLPC 091756Z AUTO 26012KT 10SM CLR 19/14 A3001 RMK AO2 SLP162 T01940144 10200 20144 50001
KLPC 091743Z AUTO 25008KT 10SM SCT014 19/15 A3001 RMK AO2
KLPC 091656Z AUTO 27007KT 10SM OVC010 17/14 A3001 RMK AO2 CIG 008V011 SLP165 T01720144
KLPC 091556Z AUTO 30003KT 10SM OVC006 16/14 A3002 RMK AO2 SLP167 T01560139
KLPC 091510Z AUTO 28006KT 10SM OVC006 15/14 A3001 RMK AO2
KLPC 091456Z AUTO 32005KT 10SM OVC004 15/14 A3000 RMK AO2 SLP162 T01500139 53009
KLPC 091356Z AUTO 30005KT 10SM OVC004 15/14 A2999 RMK AO2 SLP156 T01500139
KLPC 091256Z AUTO 28009KT 10SM OVC004 14/14 A2998 RMK AO2 SLP151 T01440139
KLPC 091253Z AUTO 30006KT 10SM OVC004 14/14 A2998 RMK AO2
KLPC 091208Z AUTO 29008KT 10SM OVC006 15/14 A2997 RMK AO2
KLPC 091156Z AUTO 28009KT 10SM OVC004 15/14 A2997 RMK AO2 SLP150 T01500144 10161 20150 53004
KLPC 091056Z AUTO 29007KT 7SM OVC004 15/14 A2996 RMK AO2 SLP147 T01500144
KLPC 090956Z AUTO 27007KT 10SM OVC006 16/14 A2996 RMK AO2 SLP144 T01560144
KLPC 090856Z AUTO 27006KT 10SM OVC006 16/14 A2996 RMK AO2 SLP146 T01560144 58005
KLPC 090756Z AUTO 30004KT 10SM OVC008 16/14 A2998 RMK AO2 SLP153 T01610144 402330144
KLPC 090656Z AUTO 30005KT 10SM OVC008 16/14 A2998 RMK AO2 SLP152 T01610144
KLPC 090556Z AUTO 29007KT 10SM OVC008 16/14 A2998 RMK AO2 SLP151 T01610144 10217 20161 50009
KLPC 090549Z AUTO 29007KT 10SM OVC008 16/14 A2998 RMK AO2
KLPC 090456Z AUTO 28008KT 10SM OVC010 16/14 A2998 RMK AO2 SLP153 T01610144
KLPC 090356Z AUTO 28006KT 10SM OVC012 17/14 A2997 RMK AO2 SLP149 T01670144
KLPC 090334Z AUTO 27008KT 10SM BKN012 17/14 A2996 RMK AO2